CMF weather

Chambéry-Savoie Airport
Chambéry/Aix-les-Bains, Rhône Alpes, France

Public forecast

Using degrees Celsius for public forecast. Weather courtesy of forecast.io.

Current aviation weather report (METAR) for Chambéry-Savoie Airport

Retrieved 2019/10/23 09:30 UTC (0 seconds ago):

LFLB 230930Z AUTO 33007KT 280V360 CAVOK 16/12 Q1013 NOSIG

Aviation forecast (TAF) for Chambéry-Savoie Airport

Retrieved 2019/10/23 06:39 UTC (2 hours ago):

TAF LFLB 230500Z 2306/2406 36008KT CAVOK PROB40 TEMPO 2306/2309 0400 FG BECMG 2309/2312 BKN025